createdAt,value
2022-12-08T05:04:04.082Z,3.73
2022-12-08T05:08:08.155Z,3.75
2022-12-08T05:12:10.846Z,3.76
2022-12-08T05:16:16.003Z,3.76
2022-12-08T05:20:20.626Z,3.82
2022-12-08T05:24:23.265Z,3.77
2022-12-08T05:28:41.257Z,3.75
2022-12-08T05:32:45.188Z,3.67
2022-12-08T05:36:49.241Z,3.75
2022-12-08T05:40:51.832Z,3.88
2022-12-08T05:44:54.549Z,3.96
2022-12-08T05:48:57.291Z,4.06
2022-12-08T05:53:01.341Z,4.01
2022-12-08T05:57:04.113Z,4.01
2022-12-08T06:01:06.933Z,3.95
2022-12-08T06:05:09.813Z,3.96
2022-12-08T06:09:13.712Z,3.94
2022-12-08T06:13:16.766Z,3.94
2022-12-08T06:17:19.459Z,3.85
2022-12-08T06:21:22.399Z,3.83
2022-12-08T06:25:26.654Z,3.82
2022-12-08T06:29:29.250Z,3.90
2022-12-08T06:33:32.008Z,3.88
2022-12-08T06:37:34.706Z,3.85
2022-12-08T06:41:58.819Z,4.00
2022-12-08T06:46:01.752Z,3.94
2022-12-08T06:50:06.207Z,3.94
2022-12-08T06:54:08.977Z,3.98
2022-12-08T06:58:13.989Z,4.08
2022-12-08T07:02:17.167Z,4.01
2022-12-08T07:06:23.310Z,3.95
2022-12-08T07:10:25.953Z,3.97
2022-12-08T07:14:30.222Z,4.00
2022-12-08T07:18:32.837Z,4.04
2022-12-08T07:22:35.475Z,4.11
2022-12-08T07:26:38.118Z,4.16
2022-12-08T07:30:42.142Z,4.20
2022-12-08T07:34:47.110Z,4.20
2022-12-08T07:38:50.826Z,4.20
2022-12-08T07:42:53.317Z,4.19
2022-12-08T07:46:57.262Z,4.19
2022-12-08T07:51:03.746Z,4.25
2022-12-08T07:55:07.324Z,4.20
2022-12-08T07:59:09.814Z,4.23
2022-12-08T08:03:13.845Z,4.19
2022-12-08T08:07:16.554Z,4.23
2022-12-08T08:11:21.556Z,4.22
2022-12-08T08:15:24.443Z,4.38
2022-12-08T08:19:28.511Z,4.52
2022-12-08T08:23:31.196Z,4.51
2022-12-08T08:27:33.818Z,4.49
2022-12-08T08:31:36.518Z,4.52
2022-12-08T08:35:40.803Z,4.53
2022-12-08T08:39:43.542Z,4.51
2022-12-08T08:43:46.124Z,4.56
2022-12-08T08:47:48.751Z,4.59
2022-12-08T08:51:52.709Z,4.61
2022-12-08T08:55:55.675Z,4.53
2022-12-08T08:59:58.273Z,4.57
2022-12-08T09:04:01.369Z,4.56
2022-12-08T09:08:05.729Z,4.70
2022-12-08T09:12:08.703Z,4.75
2022-12-08T09:16:12.932Z,4.84
2022-12-08T09:20:15.660Z,4.99
2022-12-08T09:24:19.643Z,4.97
2022-12-08T09:28:22.270Z,5.01
2022-12-08T09:32:24.906Z,4.90
2022-12-08T09:36:27.693Z,4.75
2022-12-08T09:40:36.889Z,4.72
2022-12-08T09:44:49.462Z,4.74
2022-12-08T09:48:56.001Z,4.77
2022-12-08T09:53:04.285Z,4.79
2022-12-08T09:57:16.136Z,4.78
2022-12-08T10:01:20.466Z,4.72
2022-12-08T10:05:25.710Z,4.67
2022-12-08T10:09:40.954Z,4.68
2022-12-08T10:13:59.766Z,4.73
2022-12-08T10:18:04.933Z,4.72
2022-12-08T10:22:19.504Z,4.89
2022-12-08T10:26:23.404Z,4.89
2022-12-08T10:30:27.699Z,4.88
2022-12-08T10:34:30.358Z,5.00
2022-12-08T10:38:34.234Z,5.03
2022-12-08T10:42:39.899Z,5.02
2022-12-08T10:46:44.107Z,5.00
2022-12-08T10:50:49.093Z,4.95
2022-12-08T10:54:55.914Z,5.12
2022-12-08T10:59:16.028Z,5.05
2022-12-08T11:03:25.900Z,5.15
2022-12-08T11:07:29.097Z,4.86
2022-12-08T11:11:40.254Z,4.96
2022-12-08T11:15:47.024Z,4.97
2022-12-08T11:19:58.739Z,5.07
2022-12-08T11:24:23.188Z,5.12
2022-12-08T11:28:26.688Z,5.15
2022-12-08T11:32:29.272Z,5.02
2022-12-08T11:36:36.108Z,5.28
2022-12-08T11:40:41.174Z,5.28
2022-12-08T11:44:50.281Z,5.28
2022-12-08T11:48:55.696Z,5.38
2022-12-08T11:53:02.375Z,5.36
2022-12-08T11:57:10.145Z,5.43
2022-12-08T12:01:20.982Z,5.24
2022-12-08T12:06:03.289Z,5.27
2022-12-08T12:10:14.494Z,5.29
2022-12-08T12:14:31.417Z,5.26
2022-12-08T12:18:40.205Z,5.24
2022-12-08T12:22:45.738Z,5.27
2022-12-08T12:26:58.560Z,5.37
2022-12-08T12:31:06.093Z,5.33
2022-12-08T12:35:18.061Z,5.39
2022-12-08T12:39:24.570Z,5.39
2022-12-08T12:43:35.037Z,5.43
2022-12-08T12:47:54.288Z,5.57
2022-12-08T12:51:58.758Z,5.51
2022-12-08T12:56:04.136Z,5.38
2022-12-08T13:00:20.406Z,5.45
2022-12-08T13:04:32.011Z,5.35
2022-12-08T13:08:34.874Z,5.31
2022-12-08T13:12:37.836Z,5.31
2022-12-08T13:16:41.923Z,5.28
2022-12-08T13:20:51.608Z,5.25
2022-12-08T13:24:54.237Z,5.22
2022-12-08T13:29:22.417Z,5.10
2022-12-08T13:33:30.259Z,5.07
2022-12-08T13:37:45.739Z,4.98
2022-12-08T13:42:01.520Z,4.94
2022-12-08T13:56:30.727Z,4.97
2022-12-08T13:59:30.449Z,5.12
2022-12-08T14:03:45.116Z,5.07
2022-12-08T14:08:02.234Z,4.96
2022-12-08T14:12:09.929Z,5.05
2022-12-08T14:16:27.575Z,5.06
2022-12-08T14:20:33.829Z,4.79
2022-12-08T14:24:48.242Z,4.67
2022-12-08T14:28:51.573Z,4.59
2022-12-08T14:32:58.303Z,4.36
2022-12-08T14:37:01.008Z,4.40
2022-12-08T14:41:07.868Z,4.59
2022-12-08T14:45:14.026Z,4.48
2022-12-08T14:49:35.602Z,4.41
2022-12-08T14:53:40.982Z,4.41
2022-12-08T14:57:49.121Z,4.43
2022-12-08T15:01:54.429Z,4.29
2022-12-08T15:05:59.681Z,4.21
2022-12-08T15:10:21.097Z,4.20
2022-12-08T15:14:33.458Z,4.18
2022-12-08T15:18:38.424Z,4.15
2022-12-08T15:22:41.090Z,4.09
2022-12-08T15:26:46.772Z,4.11
2022-12-08T15:30:51.386Z,4.19
2022-12-08T15:34:54.049Z,4.20
2022-12-08T15:38:56.812Z,4.16
2022-12-08T15:42:59.436Z,4.16
2022-12-08T15:47:03.661Z,4.18
2022-12-08T15:51:06.305Z,4.17
2022-12-08T15:55:13.348Z,4.20
2022-12-08T15:59:19.083Z,4.19
2022-12-08T16:04:13.836Z,4.10
2022-12-08T16:07:53.126Z,4.06
2022-12-08T16:12:18.115Z,3.96
2022-12-08T16:16:27.360Z,3.98
2022-12-08T16:20:58.955Z,3.88
2022-12-08T16:24:54.384Z,3.92
2022-12-08T16:28:57.580Z,3.91
2022-12-08T16:33:00.269Z,3.82
2022-12-08T16:37:04.271Z,3.77
2022-12-08T16:41:24.532Z,3.73
2022-12-08T16:45:29.734Z,3.71
2022-12-08T16:49:32.462Z,3.64
2022-12-08T16:53:36.462Z,3.59
2022-12-08T16:57:39.404Z,3.53
2022-12-08T17:01:42.101Z,3.43
2022-12-08T17:05:44.901Z,3.42
2022-12-08T17:09:48.859Z,3.37
2022-12-08T17:13:51.493Z,3.26
2022-12-08T17:17:54.954Z,3.23
2022-12-08T17:21:57.463Z,3.25
2022-12-08T17:26:02.083Z,3.28
2022-12-08T17:30:06.398Z,3.33
2022-12-08T17:34:10.290Z,3.23
2022-12-08T17:38:12.985Z,3.10
2022-12-08T17:42:16.925Z,3.28
2022-12-08T17:46:20.599Z,3.26
2022-12-08T17:50:23.268Z,3.24
2022-12-08T17:54:27.247Z,3.24
2022-12-08T17:58:32.181Z,3.37
2022-12-08T18:02:37.726Z,3.53
2022-12-08T18:06:40.829Z,3.56
2022-12-08T18:10:43.615Z,3.48
2022-12-08T18:14:48.195Z,3.46
2022-12-08T18:18:51.203Z,3.48
2022-12-08T18:22:53.835Z,3.55
2022-12-08T18:26:57.804Z,3.57
2022-12-08T18:31:01.910Z,3.55
2022-12-08T18:35:04.925Z,3.49
2022-12-08T18:39:10.945Z,3.53
2022-12-08T18:43:13.777Z,3.57
2022-12-08T18:47:17.847Z,3.55
2022-12-08T18:51:23.240Z,3.54
2022-12-08T18:55:25.956Z,3.46
2022-12-08T18:59:28.640Z,3.37
2022-12-08T19:03:32.595Z,3.33
2022-12-08T19:07:36.747Z,3.30
2022-12-08T19:11:39.766Z,3.37
2022-12-08T19:15:42.538Z,3.36
2022-12-08T19:19:46.731Z,3.41
2022-12-08T19:23:53.613Z,3.34
2022-12-08T19:27:56.717Z,3.29
2022-12-08T19:32:00.311Z,3.30
2022-12-08T19:36:06.791Z,3.41
2022-12-08T19:40:32.372Z,3.35
2022-12-08T19:44:52.643Z,3.33
2022-12-08T19:48:55.469Z,3.38
2022-12-08T19:52:59.509Z,3.41
2022-12-08T19:57:02.569Z,3.48
2022-12-08T20:01:05.228Z,3.45
2022-12-08T20:05:09.651Z,3.43
2022-12-08T20:09:14.114Z,3.41
2022-12-08T20:13:34.270Z,3.38
2022-12-08T20:17:36.927Z,3.35
2022-12-08T20:21:40.360Z,3.21
2022-12-08T20:25:45.414Z,3.19
2022-12-08T20:29:48.038Z,3.15
2022-12-08T20:33:50.860Z,3.14
2022-12-08T20:37:53.552Z,3.29
2022-12-08T20:41:58.636Z,3.41
2022-12-08T20:46:01.321Z,3.40
2022-12-08T20:50:05.062Z,3.29
2022-12-08T20:54:09.632Z,3.26
2022-12-08T20:58:14.240Z,3.23
2022-12-08T21:02:17.590Z,3.20
2022-12-08T21:06:23.318Z,3.10
2022-12-08T21:10:26.770Z,2.97
2022-12-08T21:14:30.628Z,2.93
2022-12-08T21:18:39.193Z,2.81
2022-12-08T21:22:42.451Z,2.84
2022-12-08T21:26:45.320Z,2.87
2022-12-08T21:30:49.687Z,2.82
2022-12-08T21:34:52.415Z,2.86
2022-12-08T21:38:58.253Z,2.94
2022-12-08T21:43:02.095Z,3.05
2022-12-08T21:47:06.580Z,3.03
2022-12-08T21:51:09.920Z,3.02
2022-12-08T21:55:13.826Z,2.99
2022-12-08T21:59:16.715Z,3.04
